sensor_id;sensor_type;location;lat;lon;timestamp;pressure;altitude;pressure_sealevel;temperature;humidity
7170;BME280;3626;42.656;23.312;2023-05-12T00:00:03;94761.28;;;8.38;100.00
7170;BME280;3626;42.656;23.312;2023-05-12T00:00:13;94763.06;;;8.38;100.00
7170;BME280;3626;42.656;23.312;2023-05-12T00:00:19;94766.44;;;8.38;100.00
7170;BME280;3626;42.656;23.312;2023-05-12T00:00:25;94756.16;;;8.38;100.00
7170;BME280;3626;42.656;23.312;2023-05-12T00:00:32;94764.66;;;8.39;100.00
7170;BME280;3626;42.656;23.312;2023-05-12T00:00:38;94766.28;;;8.40;100.00
7170;BME280;3626;42.656;23.312;2023-05-12T00:00:44;94763.72;;;8.40;100.00
7170;BME280;3626;42.656;23.312;2023-05-12T00:00:49;94766.28;;;8.40;100.00
7170;BME280;3626;42.656;23.312;2023-05-12T00:00:56;94766.28;;;8.40;100.00
7170;BME280;3626;42.656;23.312;2023-05-12T00:01:02;94766.16;;;8.41;100.00
7170;BME280;3626;42.656;23.312;2023-05-12T00:01:08;94767.88;;;8.41;100.00
7170;BME280;3626;42.656;23.312;2023-05-12T00:01:13;94773.88;;;8.41;100.00
7170;BME280;3626;42.656;23.312;2023-05-12T00:01:19;94771.28;;;8.41;100.00
7170;BME280;3626;42.656;23.312;2023-05-12T00:01:25;94759.38;;;8.40;100.00
7170;BME280;3626;42.656;23.312;2023-05-12T00:01:31;94758.44;;;8.41;100.00
7170;BME280;3626;42.656;23.312;2023-05-12T00:01:37;94758.44;;;8.41;100.00
7170;BME280;3626;42.656;23.312;2023-05-12T00:01:43;94765.31;;;8.41;100.00
7170;BME280;3626;42.656;23.312;2023-05-12T00:01:49;94761.94;;;8.40;100.00
7170;BME280;3626;42.656;23.312;2023-05-12T00:01:56;94761.13;;;8.40;100.00
7170;BME280;3626;42.656;23.312;2023-05-12T00:02:02;94764.50;;;8.40;100.00
7170;BME280;3626;42.656;23.312;2023-05-12T00:02:08;94773.03;;;8.41;100.00
7170;BME280;3626;42.656;23.312;2023-05-12T00:02:14;94771.13;;;8.43;100.00
7170;BME280;3626;42.656;23.312;2023-05-12T00:02:20;94763.41;;;8.43;100.00
7170;BME280;3626;42.656;23.312;2023-05-12T00:02:26;94756.81;;;8.40;100.00
7170;BME280;3626;42.656;23.312;2023-05-12T00:02:32;94763.59;;;8.41;100.00
7170;BME280;3626;42.656;23.312;2023-05-12T00:02:38;94767.88;;;8.41;100.00
7170;BME280;3626;42.656;23.312;2023-05-12T00:02:44;94760.19;;;8.41;100.00
7170;BME280;3626;42.656;23.312;2023-05-12T00:02:50;94767.88;;;8.41;100.00
7170;BME280;3626;42.656;23.312;2023-05-12T00:02:56;94763.59;;;8.41;100.00
7170;BME280;3626;42.656;23.312;2023-05-12T00:03:01;94768.72;;;8.41;100.00
7170;BME280;3626;42.656;23.312;2023-05-12T00:03:08;94771.28;;;8.41;100.00
7170;BME280;3626;42.656;23.312;2023-05-12T00:03:14;94758.44;;;8.41;100.00
7170;BME280;3626;42.656;23.312;2023-05-12T00:03:20;94765.31;;;8.41;100.00
7170;BME280;3626;42.656;23.312;2023-05-12T00:03:27;94761.94;;;8.40;100.00
7170;BME280;3626;42.656;23.312;2023-05-12T00:03:33;94762.75;;;8.41;100.00
7170;BME280;3626;42.656;23.312;2023-05-12T00:03:38;94764.50;;;8.40;100.00
7170;BME280;3626;42.656;23.312;2023-05-12T00:03:44;94767.88;;;8.41;100.00
7170;BME280;3626;42.656;23.312;2023-05-12T00:03:50;94755.88;;;8.41;100.00
7170;BME280;3626;42.656;23.312;2023-05-12T00:03:57;94755.03;;;8.41;100.00
7170;BME280;3626;42.656;23.312;2023-05-12T00:04:04;94765.31;;;8.41;100.00
7170;BME280;3626;42.656;23.312;2023-05-12T00:04:09;94761.94;;;8.40;100.00
7170;BME280;3626;42.656;23.312;2023-05-12T00:04:15;94767.88;;;8.41;100.00
7170;BME280;3626;42.656;23.312;2023-05-12T00:04:24;94761.00;;;8.41;100.00
7170;BME280;3626;42.656;23.312;2023-05-12T00:04:31;94756.81;;;8.40;100.00
7170;BME280;3626;42.656;23.312;2023-05-12T00:04:37;94762.75;;;8.41;100.00
7170;BME280;3626;42.656;23.312;2023-05-12T00:04:44;94763.59;;;8.41;100.00
7170;BME280;3626;42.656;23.312;2023-05-12T00:04:52;94770.47;;;8.41;100.00
7170;BME280;3626;42.656;23.312;2023-05-12T00:04:58;94767.88;;;8.41;100.00
7170;BME280;3626;42.656;23.312;2023-05-12T00:05:04;94759.25;;;8.42;100.00
7170;BME280;3626;42.656;23.312;2023-05-12T00:05:10;94764.38;;;8.42;100.00
7170;BME280;3626;42.656;23.312;2023-05-12T00:05:16;94765.03;;;8.44;100.00
7170;BME280;3626;42.656;23.312;2023-05-12T00:05:22;94767.59;;;8.44;100.00
7170;BME280;3626;42.656;23.312;2023-05-12T00:05:30;94766.63;;;8.45;100.00
7170;BME280;3626;42.656;23.312;2023-05-12T00:05:36;94753.78;;;8.45;100.00
7170;BME280;3626;42.656;23.312;2023-05-12T00:05:42;94766.63;;;8.45;100.00
7170;BME280;3626;42.656;23.312;2023-05-12T00:05:48;94758.78;;;8.46;100.00
7170;BME280;3626;42.656;23.312;2023-05-12T00:05:54;94764.91;;;8.45;100.00
7170;BME280;3626;42.656;23.312;2023-05-12T00:06:00;94762.31;;;8.45;100.00
7170;BME280;3626;42.656;23.312;2023-05-12T00:06:07;94763.13;;;8.46;100.00
7170;BME280;3626;42.656;23.312;2023-05-12T00:06:13;94763.25;;;8.44;100.00
7170;BME280;3626;42.656;23.312;2023-05-12T00:06:20;94764.06;;;8.45;100.00
7170;BME280;3626;42.656;23.312;2023-05-12T00:06:26;94758.91;;;8.45;100.00
7170;BME280;3626;42.656;23.312;2023-05-12T00:06:32;94764.91;;;8.45;100.00
7170;BME280;3626;42.656;23.312;2023-05-12T00:06:38;94759.75;;;8.45;100.00
7170;BME280;3626;42.656;23.312;2023-05-12T00:06:44;94760.56;;;8.46;100.00
7170;BME280;3626;42.656;23.312;2023-05-12T00:06:50;94769.06;;;8.46;100.00
7170;BME280;3626;42.656;23.312;2023-05-12T00:06:56;94762.97;;;8.47;100.00
7170;BME280;3626;42.656;23.312;2023-05-12T00:07:02;94764.56;;;8.48;100.00
7170;BME280;3626;42.656;23.312;2023-05-12T00:07:10;94760.41;;;8.47;100.00
7170;BME280;3626;42.656;23.312;2023-05-12T00:07:16;94766.34;;;8.48;100.00
7170;BME280;3626;42.656;23.312;2023-05-12T00:07:22;94759.59;;;8.47;100.00
7170;BME280;3626;42.656;23.312;2023-05-12T00:07:28;94757.81;;;8.47;100.00
7170;BME280;3626;42.656;23.312;2023-05-12T00:07:34;94763.78;;;8.48;100.00
7170;BME280;3626;42.656;23.312;2023-05-12T00:07:40;94762.16;;;8.47;100.00
7170;BME280;3626;42.656;23.312;2023-05-12T00:07:46;94760.41;;;8.47;100.00
7170;BME280;3626;42.656;23.312;2023-05-12T00:07:52;94758.63;;;8.48;100.00
7170;BME280;3626;42.656;23.312;2023-05-12T00:07:58;94770.53;;;8.49;100.00
7170;BME280;3626;42.656;23.312;2023-05-12T00:08:04;94762.81;;;8.49;100.00
7170;BME280;3626;42.656;23.312;2023-05-12T00:08:10;94763.63;;;8.49;100.00
7170;BME280;3626;42.656;23.312;2023-05-12T00:08:16;94758.47;;;8.49;100.00
7170;BME280;3626;42.656;23.312;2023-05-12T00:08:22;94767.81;;;8.50;100.00
7170;BME280;3626;42.656;23.312;2023-05-12T00:08:28;94766.19;;;8.49;100.00
7170;BME280;3626;42.656;23.312;2023-05-12T00:08:34;94759.31;;;8.50;100.00
7170;BME280;3626;42.656;23.312;2023-05-12T00:08:40;94766.19;;;8.49;100.00
7170;BME280;3626;42.656;23.312;2023-05-12T00:08:45;94767.94;;;8.49;100.00
7170;BME280;3626;42.656;23.312;2023-05-12T00:08:51;94765.38;;;8.49;100.00
7170;BME280;3626;42.656;23.312;2023-05-12T00:08:57;94755.91;;;8.49;100.00
7170;BME280;3626;42.656;23.312;2023-05-12T00:09:03;94759.44;;;8.48;100.00
7170;BME280;3626;42.656;23.312;2023-05-12T00:09:10;94766.34;;;8.48;100.00
7170;BME280;3626;42.656;23.312;2023-05-12T00:09:16;94764.75;;;8.47;100.00
7170;BME280;3626;42.656;23.312;2023-05-12T00:09:22;94761.38;;;8.46;100.00
7170;BME280;3626;42.656;23.312;2023-05-12T00:09:27;94764.75;;;8.47;100.00
7170;BME280;3626;42.656;23.312;2023-05-12T00:09:33;94757.19;;;8.45;100.00
7170;BME280;3626;42.656;23.312;2023-05-12T00:09:39;94766.50;;;8.46;100.00
7170;BME280;3626;42.656;23.312;2023-05-12T00:09:46;94763.13;;;8.46;100.00
7170;BME280;3626;42.656;23.312;2023-05-12T00:09:52;94761.50;;;8.45;100.00
7170;BME280;3626;42.656;23.312;2023-05-12T00:09:58;94769.06;;;8.46;100.00
7170;BME280;3626;42.656;23.312;2023-05-12T00:10:04;94761.50;;;8.45;100.00
7170;BME280;3626;42.656;23.312;2023-05-12T00:10:10;94762.31;;;8.45;100.00
7170;BME280;3626;42.656;23.312;2023-05-12T00:10:16;94765.84;;;8.44;100.00
7170;BME280;3626;42.656;23.312;2023-05-12T00:10:22;94766.63;;;8.45;100.00
7170;BME280;3626;42.656;23.312;2023-05-12T00:10:28;94767.47;;;8.45;100.00
7170;BME280;3626;42.656;23.312;2023-05-12T00:10:34;94766.78;;;8.43;100.00
7170;BME280;3626;42.656;23.312;2023-05-12T00:10:41;94769.38;;;8.43;100.00
7170;BME280;3626;42.656;23.312;2023-05-12T00:10:47;94766.00;;;8.43;100.00
7170;BME280;3626;42.656;23.312;2023-05-12T00:10:53;94766.97;;;8.42;100.00
7170;BME280;3626;42.656;23.312;2023-05-12T00:11:00;94768.72;;;8.41;100.00
7170;BME280;3626;42.656;23.312;2023-05-12T00:11:06;94767.09;;;8.40;100.00
7170;BME280;3626;42.656;23.312;2023-05-12T00:11:11;94773.19;;;8.39;100.00
7170;BME280;3626;42.656;23.312;2023-05-12T00:11:17;94763.72;;;8.40;100.00
7170;BME280;3626;42.656;23.312;2023-05-12T00:11:23;94766.28;;;8.40;100.00
7170;BME280;3626;42.656;23.312;2023-05-12T00:11:29;94761.13;;;8.40;100.00
7170;BME280;3626;42.656;23.312;2023-05-12T00:11:36;94770.47;;;8.41;100.00
7170;BME280;3626;42.656;23.312;2023-05-12T00:11:42;94757.59;;;8.41;100.00
7170;BME280;3626;42.656;23.312;2023-05-12T00:11:48;94765.31;;;8.41;100.00
7170;BME280;3626;42.656;23.312;2023-05-12T00:11:55;94765.31;;;8.41;100.00
7170;BME280;3626;42.656;23.312;2023-05-12T00:12:01;94763.59;;;8.41;100.00
7170;BME280;3626;42.656;23.312;2023-05-12T00:12:07;94756.81;;;8.40;100.00
7170;BME280;3626;42.656;23.312;2023-05-12T00:12:13;94761.94;;;8.40;100.00
7170;BME280;3626;42.656;23.312;2023-05-12T00:12:19;94767.88;;;8.41;100.00
7170;BME280;3626;42.656;23.312;2023-05-12T00:12:25;94762.63;;;8.42;100.00
7170;BME280;3626;42.656;23.312;2023-05-12T00:12:31;94766.97;;;8.42;100.00
7170;BME280;3626;42.656;23.312;2023-05-12T00:12:37;94766.00;;;8.43;100.00
7170;BME280;3626;42.656;23.312;2023-05-12T00:12:43;94766.00;;;8.43;100.00
7170;BME280;3626;42.656;23.312;2023-05-12T00:12:49;94762.63;;;8.42;100.00
7170;BME280;3626;42.656;23.312;2023-05-12T00:12:54;94765.19;;;8.42;100.00
7170;BME280;3626;42.656;23.312;2023-05-12T00:13:01;94766.97;;;8.42;100.00
7170;BME280;3626;42.656;23.312;2023-05-12T00:13:08;94754.09;;;8.42;100.00
7170;BME280;3626;42.656;23.312;2023-05-12T00:13:14;94769.38;;;8.43;100.00
7170;BME280;3626;42.656;23.312;2023-05-12T00:13:20;94765.19;;;8.42;100.00
7170;BME280;3626;42.656;23.312;2023-05-12T00:13:27;94769.38;;;8.43;100.00
7170;BME280;3626;42.656;23.312;2023-05-12T00:13:33;94767.59;;;8.44;100.00
7170;BME280;3626;42.656;23.312;2023-05-12T00:13:39;94760.84;;;8.43;100.00
7170;BME280;3626;42.656;23.312;2023-05-12T00:13:45;94765.84;;;8.44;100.00
7170;BME280;3626;42.656;23.312;2023-05-12T00:13:53;94766.78;;;8.43;100.00
7170;BME280;3626;42.656;23.312;2023-05-12T00:13:59;94764.22;;;8.43;100.00
7170;BME280;3626;42.656;23.312;2023-05-12T00:14:05;94765.19;;;8.42;100.00
7170;BME280;3626;42.656;23.312;2023-05-12T00:14:11;94760.03;;;8.42;100.00
7170;BME280;3626;42.656;23.312;2023-05-12T00:14:17;94763.41;;;8.43;100.00
7170;BME280;3626;42.656;23.312;2023-05-12T00:14:23;94767.75;;;8.42;100.00
7170;BME280;3626;42.656;23.312;2023-05-12T00:14:28;94766.00;;;8.43;100.00
7170;BME280;3626;42.656;23.312;2023-05-12T00:14:35;94766.00;;;8.43;100.00
7170;BME280;3626;42.656;23.312;2023-05-12T00:14:41;94762.47;;;8.44;100.00
7170;BME280;3626;42.656;23.312;2023-05-12T00:14:47;94769.38;;;8.43;100.00
7170;BME280;3626;42.656;23.312;2023-05-12T00:14:54;94766.78;;;8.43;100.00
7170;BME280;3626;42.656;23.312;2023-05-12T00:15:00;94765.84;;;8.44;100.00
7170;BME280;3626;42.656;23.312;2023-05-12T00:15:06;94770.97;;;8.44;100.00
7170;BME280;3626;42.656;23.312;2023-05-12T00:15:12;94764.06;;;8.45;100.00
7170;BME280;3626;42.656;23.312;2023-05-12T00:15:18;94769.22;;;8.45;100.00
7170;BME280;3626;42.656;23.312;2023-05-12T00:15:24;94772.63;;;8.45;100.00
7170;BME280;3626;42.656;23.312;2023-05-12T00:15:30;94764.91;;;8.45;100.00
7170;BME280;3626;42.656;23.312;2023-05-12T00:15:36;94762.47;;;8.44;100.00
7170;BME280;3626;42.656;23.312;2023-05-12T00:15:42;94771.13;;;8.43;100.00
7170;BME280;3626;42.656;23.312;2023-05-12T00:15:49;94770.34;;;8.42;100.00
7170;BME280;3626;42.656;23.312;2023-05-12T00:15:55;94765.19;;;8.42;100.00
7170;BME280;3626;42.656;23.312;2023-05-12T00:16:03;94771.94;;;8.43;100.00
7170;BME280;3626;42.656;23.312;2023-05-12T00:16:11;94766.78;;;8.43;100.00
7170;BME280;3626;42.656;23.312;2023-05-12T00:16:17;94763.41;;;8.43;100.00
7170;BME280;3626;42.656;23.312;2023-05-12T00:16:23;94765.19;;;8.42;100.00
7170;BME280;3626;42.656;23.312;2023-05-12T00:16:29;94766.16;;;8.41;100.00
7170;BME280;3626;42.656;23.312;2023-05-12T00:16:35;94768.72;;;8.41;100.00
7170;BME280;3626;42.656;23.312;2023-05-12T00:16:41;94766.16;;;8.41;100.00
7170;BME280;3626;42.656;23.312;2023-05-12T00:16:46;94769.53;;;8.42;100.00
7170;BME280;3626;42.656;23.312;2023-05-12T00:16:56;94767.75;;;8.42;100.00
7170;BME280;3626;42.656;23.312;2023-05-12T00:17:02;94764.38;;;8.42;100.00
7170;BME280;3626;42.656;23.312;2023-05-12T00:17:08;94766.00;;;8.43;100.00
7170;BME280;3626;42.656;23.312;2023-05-12T00:17:14;94770.97;;;8.44;100.00
7170;BME280;3626;42.656;23.312;2023-05-12T00:17:20;94769.38;;;8.43;100.00
7170;BME280;3626;42.656;23.312;2023-05-12T00:17:26;94767.59;;;8.44;100.00
7170;BME280;3626;42.656;23.312;2023-05-12T00:17:32;94770.97;;;8.44;100.00
7170;BME280;3626;42.656;23.312;2023-05-12T00:17:38;94762.47;;;8.44;100.00
7170;BME280;3626;42.656;23.312;2023-05-12T00:17:44;94770.16;;;8.44;100.00
7170;BME280;3626;42.656;23.312;2023-05-12T00:17:49;94766.00;;;8.43;100.00
7170;BME280;3626;42.656;23.312;2023-05-12T00:17:56;94759.25;;;8.42;100.00
7170;BME280;3626;42.656;23.312;2023-05-12T00:18:03;94765.47;;;8.39;100.00
7170;BME280;3626;42.656;23.312;2023-05-12T00:18:09;94765.47;;;8.39;100.00
7170;BME280;3626;42.656;23.312;2023-05-12T00:18:16;94764.66;;;8.39;100.00
7170;BME280;3626;42.656;23.312;2023-05-12T00:18:21;94762.09;;;8.39;100.00
7170;BME280;3626;42.656;23.312;2023-05-12T00:18:27;94760.34;;;8.39;100.00
7170;BME280;3626;42.656;23.312;2023-05-12T00:18:33;94769.81;;;8.39;100.00
7170;BME280;3626;42.656;23.312;2023-05-12T00:18:39;94769.00;;;8.38;100.00
7170;BME280;3626;42.656;23.312;2023-05-12T00:18:45;94765.63;;;8.38;100.00
7170;BME280;3626;42.656;23.312;2023-05-12T00:18:51;94764.66;;;8.39;100.00
7170;BME280;3626;42.656;23.312;2023-05-12T00:18:56;94759.69;;;8.37;100.00
7170;BME280;3626;42.656;23.312;2023-05-12T00:19:02;94764.84;;;8.37;100.00
7170;BME280;3626;42.656;23.312;2023-05-12T00:19:08;94763.06;;;8.38;100.00
7170;BME280;3626;42.656;23.312;2023-05-12T00:19:14;94767.25;;;8.39;100.00
7170;BME280;3626;42.656;23.312;2023-05-12T00:19:21;94770.78;;;8.38;100.00
7170;BME280;3626;42.656;23.312;2023-05-12T00:19:28;94757.13;;;8.37;100.00
7170;BME280;3626;42.656;23.312;2023-05-12T00:19:36;94759.78;;;8.36;100.00
7170;BME280;3626;42.656;23.312;2023-05-12T00:19:42;94762.53;;;8.34;100.00
7170;BME280;3626;42.656;23.312;2023-05-12T00:19:48;94767.66;;;8.34;100.00
7170;BME280;3626;42.656;23.312;2023-05-12T00:19:54;94765.09;;;8.34;100.00
7170;BME280;3626;42.656;23.312;2023-05-12T00:20:00;94764.28;;;8.34;100.00
7170;BME280;3626;42.656;23.312;2023-05-12T00:20:06;94757.38;;;8.34;100.00
7170;BME280;3626;42.656;23.312;2023-05-12T00:20:12;94762.53;;;8.34;100.00
7170;BME280;3626;42.656;23.312;2023-05-12T00:20:18;94760.75;;;8.35;100.00
7170;BME280;3626;42.656;23.312;2023-05-12T00:20:24;94758.19;;;8.35;100.00
7170;BME280;3626;42.656;23.312;2023-05-12T00:20:30;94761.72;;;8.34;100.00
7170;BME280;3626;42.656;23.312;2023-05-12T00:20:36;94764.28;;;8.34;100.00
7170;BME280;3626;42.656;23.312;2023-05-12T00:20:42;94763.47;;;8.33;100.00
7170;BME280;3626;42.656;23.312;2023-05-12T00:20:48;94763.47;;;8.33;100.00
7170;BME280;3626;42.656;23.312;2023-05-12T00:20:55;94766.06;;;8.33;100.00
7170;BME280;3626;42.656;23.312;2023-05-12T00:21:01;94761.72;;;8.34;100.00
7170;BME280;3626;42.656;23.312;2023-05-12T00:21:07;94759.28;;;8.32;100.00
7170;BME280;3626;42.656;23.312;2023-05-12T00:21:13;94763.63;;;8.32;100.00
7170;BME280;3626;42.656;23.312;2023-05-12T00:21:19;94767.94;;;8.31;100.00
7170;BME280;3626;42.656;23.312;2023-05-12T00:21:25;94766.19;;;8.32;100.00
7170;BME280;3626;42.656;23.312;2023-05-12T00:21:30;94764.41;;;8.32;100.00
7170;BME280;3626;42.656;23.312;2023-05-12T00:21:36;94760.25;;;8.31;100.00
7170;BME280;3626;42.656;23.312;2023-05-12T00:21:42;94762.00;;;8.31;100.00
7170;BME280;3626;42.656;23.312;2023-05-12T00:21:48;94758.47;;;8.32;100.00
7170;BME280;3626;42.656;23.312;2023-05-12T00:21:54;94772.28;;;8.31;100.00
7170;BME280;3626;42.656;23.312;2023-05-12T00:22:00;94768.91;;;8.30;100.00
7170;BME280;3626;42.656;23.312;2023-05-12T00:22:06;94765.53;;;8.30;100.00
7170;BME280;3626;42.656;23.312;2023-05-12T00:22:12;94764.75;;;8.29;100.00
7170;BME280;3626;42.656;23.312;2023-05-12T00:22:19;94753.66;;;8.29;100.00
7170;BME280;3626;42.656;23.312;2023-05-12T00:22:25;94754.44;;;8.29;100.00
7170;BME280;3626;42.656;23.312;2023-05-12T00:22:32;94759.06;;;8.25;100.00
7170;BME280;3626;42.656;23.312;2023-05-12T00:22:38;94762.44;;;8.26;100.00
7170;BME280;3626;42.656;23.312;2023-05-12T00:22:44;94762.44;;;8.26;100.00
7170;BME280;3626;42.656;23.312;2023-05-12T00:22:50;94760.84;;;8.25;100.00
7170;BME280;3626;42.656;23.312;2023-05-12T00:22:56;94759.06;;;8.25;100.00
7170;BME280;3626;42.656;23.312;2023-05-12T00:23:01;94761.66;;;8.25;100.00
7170;BME280;3626;42.656;23.312;2023-05-12T00:23:08;94758.28;;;8.25;100.00
7170;BME280;3626;42.656;23.312;2023-05-12T00:23:14;94761.78;;;8.24;100.00
7170;BME280;3626;42.656;23.312;2023-05-12T00:23:20;94765.19;;;8.24;100.00
7170;BME280;3626;42.656;23.312;2023-05-12T00:23:26;94763.53;;;8.23;100.00
7170;BME280;3626;42.656;23.312;2023-05-12T00:23:32;94767.75;;;8.24;100.00
7170;BME280;3626;42.656;23.312;2023-05-12T00:23:38;94756.63;;;8.24;100.00
7170;BME280;3626;42.656;23.312;2023-05-12T00:23:44;94767.75;;;8.24;100.00
7170;BME280;3626;42.656;23.312;2023-05-12T00:23:50;94762.63;;;8.24;100.00
7170;BME280;3626;42.656;23.312;2023-05-12T00:23:56;94758.28;;;8.25;100.00
7170;BME280;3626;42.656;23.312;2023-05-12T00:24:04;94763.41;;;8.25;100.00
7170;BME280;3626;42.656;23.312;2023-05-12T00:24:09;94759.88;;;8.26;100.00
7170;BME280;3626;42.656;23.312;2023-05-12T00:24:15;94767.44;;;8.27;100.00
7170;BME280;3626;42.656;23.312;2023-05-12T00:24:21;94770.00;;;8.27;100.00
7170;BME280;3626;42.656;23.312;2023-05-12T00:24:27;94760.53;;;8.28;100.00
7170;BME280;3626;42.656;23.312;2023-05-12T00:24:34;94768.25;;;8.28;100.00
7170;BME280;3626;42.656;23.312;2023-05-12T00:24:40;94759.72;;;8.27;100.00
7170;BME280;3626;42.656;23.312;2023-05-12T00:24:48;94759.59;;;8.29;100.00
7170;BME280;3626;42.656;23.312;2023-05-12T00:24:54;94767.31;;;8.29;100.00
7170;BME280;3626;42.656;23.312;2023-05-12T00:24:59;94764.75;;;8.29;100.00
7170;BME280;3626;42.656;23.312;2023-05-12T00:25:06;94761.19;;;8.30;100.00
7170;BME280;3626;42.656;23.312;2023-05-12T00:25:12;94763.78;;;8.30;100.00
7170;BME280;3626;42.656;23.312;2023-05-12T00:25:19;94768.91;;;8.30;100.00
7170;BME280;3626;42.656;23.312;2023-05-12T00:25:25;94767.16;;;8.31;100.00
7170;BME280;3626;42.656;23.312;2023-05-12T00:25:30;94770.53;;;8.31;100.00
7170;BME280;3626;42.656;23.312;2023-05-12T00:25:36;94765.38;;;8.31;100.00
7170;BME280;3626;42.656;23.312;2023-05-12T00:25:42;94771.31;;;8.32;100.00
7170;BME280;3626;42.656;23.312;2023-05-12T00:25:48;94767.16;;;8.31;100.00
7170;BME280;3626;42.656;23.312;2023-05-12T00:25:54;94761.19;;;8.30;100.00
7170;BME280;3626;42.656;23.312;2023-05-12T00:26:00;94764.75;;;8.29;100.00
7170;BME280;3626;42.656;23.312;2023-05-12T00:26:05;94763.09;;;8.28;100.00
7170;BME280;3626;42.656;23.312;2023-05-12T00:26:11;94760.53;;;8.28;100.00
7170;BME280;3626;42.656;23.312;2023-05-12T00:26:17;94763.09;;;8.28;100.00
7170;BME280;3626;42.656;23.312;2023-05-12T00:26:23;94762.44;;;8.26;100.00
7170;BME280;3626;42.656;23.312;2023-05-12T00:26:29;94763.53;;;8.23;100.00
7170;BME280;3626;42.656;23.312;2023-05-12T00:26:36;94759.38;;;8.22;100.00
7170;BME280;3626;42.656;23.312;2023-05-12T00:26:42;94762.91;;;8.21;100.00
7170;BME280;3626;42.656;23.312;2023-05-12T00:26:47;94762.75;;;8.23;100.00
7170;BME280;3626;42.656;23.312;2023-05-12T00:26:53;94763.69;;;8.22;100.00
7170;BME280;3626;42.656;23.312;2023-05-12T00:26:59;94760.97;;;8.23;100.00
7170;BME280;3626;42.656;23.312;2023-05-12T00:27:05;94761.78;;;8.24;100.00
7170;BME280;3626;42.656;23.312;2023-05-12T00:27:11;94761.78;;;8.24;100.00
7170;BME280;3626;42.656;23.312;2023-05-12T00:27:19;94763.41;;;8.25;100.00
7170;BME280;3626;42.656;23.312;2023-05-12T00:27:24;94764.22;;;8.25;100.00
7170;BME280;3626;42.656;23.312;2023-05-12T00:27:30;94770.81;;;8.28;100.00
7170;BME280;3626;42.656;23.312;2023-05-12T00:27:37;94769.06;;;8.29;100.00
7170;BME280;3626;42.656;23.312;2023-05-12T00:27:43;94773.38;;;8.28;100.00
7170;BME280;3626;42.656;23.312;2023-05-12T00:27:48;94767.31;;;8.29;100.00
7170;BME280;3626;42.656;23.312;2023-05-12T00:27:54;94759.59;;;8.29;100.00
7170;BME280;3626;42.656;23.312;2023-05-12T00:28:01;94773.25;;;8.30;100.00
7170;BME280;3626;42.656;23.312;2023-05-12T00:28:07;94771.50;;;8.30;100.00
7170;BME280;3626;42.656;23.312;2023-05-12T00:28:13;94769.88;;;8.29;100.00
7170;BME280;3626;42.656;23.312;2023-05-12T00:28:19;94763.94;;;8.29;100.00
7170;BME280;3626;42.656;23.312;2023-05-12T00:28:25;94768.25;;;8.28;100.00
7170;BME280;3626;42.656;23.312;2023-05-12T00:28:31;94760.53;;;8.28;100.00
7170;BME280;3626;42.656;23.312;2023-05-12T00:28:36;94769.06;;;8.29;100.00
7170;BME280;3626;42.656;23.312;2023-05-12T00:28:42;94768.25;;;8.28;100.00
7170;BME280;3626;42.656;23.312;2023-05-12T00:28:48;94766.50;;;8.29;100.00
7170;BME280;3626;42.656;23.312;2023-05-12T00:28:54;94767.31;;;8.29;100.00
7170;BME280;3626;42.656;23.312;2023-05-12T00:29:00;94769.06;;;8.29;100.00
7170;BME280;3626;42.656;23.312;2023-05-12T00:29:05;94774.06;;;8.30;100.00
7170;BME280;3626;42.656;23.312;2023-05-12T00:29:11;94774.88;;;8.31;100.00
7170;BME280;3626;42.656;23.312;2023-05-12T00:29:17;94768.91;;;8.30;100.00
7170;BME280;3626;42.656;23.312;2023-05-12T00:29:23;94771.50;;;8.30;100.00
7170;BME280;3626;42.656;23.312;2023-05-12T00:29:28;94769.88;;;8.29;100.00
7170;BME280;3626;42.656;23.312;2023-05-12T00:29:35;94761.19;;;8.30;100.00
7170;BME280;3626;42.656;23.312;2023-05-12T00:29:41;94761.19;;;8.30;100.00
7170;BME280;3626;42.656;23.312;2023-05-12T00:29:47;94770.69;;;8.30;100.00
7170;BME280;3626;42.656;23.312;2023-05-12T00:29:53;94762.97;;;8.30;100.00
7170;BME280;3626;42.656;23.312;2023-05-12T00:29:58;94766.34;;;8.30;100.00
7170;BME280;3626;42.656;23.312;2023-05-12T00:30:05;94771.31;;;8.32;100.00
7170;BME280;3626;42.656;23.312;2023-05-12T00:30:12;94763.63;;;8.32;100.00
7170;BME280;3626;42.656;23.312;2023-05-12T00:30:18;94768.75;;;8.32;100.00
7170;BME280;3626;42.656;23.312;2023-05-12T00:30:24;94766.19;;;8.32;100.00
7170;BME280;3626;42.656;23.312;2023-05-12T00:30:30;94766.34;;;8.30;100.00
7170;BME280;3626;42.656;23.312;2023-05-12T00:30:36;94765.38;;;8.31;100.00
7170;BME280;3626;42.656;23.312;2023-05-12T00:30:41;94769.88;;;8.29;100.00
7170;BME280;3626;42.656;23.312;2023-05-12T00:30:47;94770.81;;;8.28;100.00
7170;BME280;3626;42.656;23.312;2023-05-12T00:30:53;94775.94;;;8.28;100.00
7170;BME280;3626;42.656;23.312;2023-05-12T00:31:00;94757.16;;;8.27;100.00
7170;BME280;3626;42.656;23.312;2023-05-12T00:31:07;94760.03;;;8.24;100.00
7170;BME280;3626;42.656;23.312;2023-05-12T00:31:13;94766.91;;;8.24;100.00
7170;BME280;3626;42.656;23.312;2023-05-12T00:31:19;94763.53;;;8.23;100.00
7170;BME280;3626;42.656;23.312;2023-05-12T00:31:24;94763.53;;;8.23;100.00
7170;BME280;3626;42.656;23.312;2023-05-12T00:31:31;94762.75;;;8.23;100.00
7170;BME280;3626;42.656;23.312;2023-05-12T00:31:36;94765.47;;;8.21;100.00
7170;BME280;3626;42.656;23.312;2023-05-12T00:31:42;94767.25;;;8.21;100.00
7170;BME280;3626;42.656;23.312;2023-05-12T00:31:48;94765.47;;;8.21;100.00
7170;BME280;3626;42.656;23.312;2023-05-12T00:31:54;94764.66;;;8.21;100.00
7170;BME280;3626;42.656;23.312;2023-05-12T00:32:00;94764.78;;;8.19;100.00
7170;BME280;3626;42.656;23.312;2023-05-12T00:32:06;94770.78;;;8.20;100.00
7170;BME280;3626;42.656;23.312;2023-05-12T00:32:12;94769.94;;;8.19;100.00
7170;BME280;3626;42.656;23.312;2023-05-12T00:32:18;94764.00;;;8.19;100.00
7170;BME280;3626;42.656;23.312;2023-05-12T00:32:26;94771.69;;;8.19;100.00
7170;BME280;3626;42.656;23.312;2023-05-12T00:32:32;94762.38;;;8.18;100.00
7170;BME280;3626;42.656;23.312;2023-05-12T00:32:37;94764.97;;;8.18;100.00
7170;BME280;3626;42.656;23.312;2023-05-12T00:32:43;94766.72;;;8.17;100.00
7170;BME280;3626;42.656;23.312;2023-05-12T00:32:50;94771.88;;;8.17;100.00
7170;BME280;3626;42.656;23.312;2023-05-12T00:32:56;94770.09;;;8.18;100.00